Time;durP1;ratioP1;P1;durP2;ratioP2;P2;SDS_P1;SDS_P2;PMS_P1;PMS_P2;Temp;Humidity;BMP_temperature;BMP_pressure;BME280_temperature;BME280_humidity;BME280_pressure;Samples;Min_cycle;Max_cycle;Signal;HPM_P1;HPM_P2
2024/04/23 00:01:50;;;;;;;3.43;3.23;;;;;;;6.35;100.00;100621.41;5465041;26;20359;-79
2024/04/23 00:04:15;;;;;;;3.40;3.10;;;;;;;6.37;100.00;100624.69;5479232;26;20317;-80
2024/04/23 00:06:40;;;;;;;4.23;3.43;;;;;;;6.35;100.00;100624.94;5478084;26;20793;-79
2024/04/23 00:09:06;;;;;;;3.57;3.20;;;;;;;6.32;100.00;100625.34;5489551;26;20330;-79
2024/04/23 00:11:31;;;;;;;4.27;3.97;;;;;;;6.28;100.00;100624.13;5490168;26;20323;-79
2024/04/23 00:13:57;;;;;;;4.13;3.73;;;;;;;6.24;100.00;100617.50;5490281;26;20318;-79
2024/04/23 00:16:23;;;;;;;4.32;3.92;;;;;;;6.20;100.00;100611.72;5489519;26;20331;-79
2024/04/23 00:18:48;;;;;;;3.53;3.30;;;;;;;6.20;100.00;100611.72;5487189;26;20719;-79
2024/04/23 00:21:14;;;;;;;3.92;3.08;;;;;;;6.15;100.00;100614.25;5487108;25;20330;-80
2024/04/23 00:23:39;;;;;;;4.15;3.72;;;;;;;6.08;100.00;100613.44;5489902;26;20334;-80
2024/04/23 00:26:04;;;;;;;2.90;2.80;;;;;;;6.04;100.00;100605.97;5489985;26;20794;-79
2024/04/23 00:28:30;;;;;;;3.93;3.67;;;;;;;5.97;100.00;100611.38;5488306;26;20388;-80
2024/04/23 00:30:55;;;;;;;4.43;3.77;;;;;;;5.94;100.00;100608.28;5490796;26;20856;-79
2024/04/23 00:33:20;;;;;;;3.65;3.45;;;;;;;5.95;100.00;100612.63;5482000;26;20349;-80
2024/04/23 00:35:45;;;;;;;3.80;3.50;;;;;;;5.92;100.00;100608.50;5469953;26;20307;-79
2024/04/23 00:38:11;;;;;;;3.90;3.63;;;;;;;5.94;100.00;100609.13;5471226;26;20677;-79
2024/04/23 00:40:36;;;;;;;4.37;3.90;;;;;;;5.89;100.00;100605.41;5486701;26;20326;-79
2024/04/23 00:43:01;;;;;;;4.60;4.22;;;;;;;5.87;100.00;100602.91;5489614;26;20661;-79
2024/04/23 00:45:33;;;;;;;5.37;3.67;;;;;;;5.87;100.00;100599.41;5489813;26;20381;-79
2024/04/23 00:47:59;;;;;;;4.35;3.88;;;;;;;5.84;100.00;100602.47;5454686;26;20344;-80
2024/04/23 00:50:26;;;;;;;3.50;3.30;;;;;;;5.81;100.00;100595.66;5486166;26;20419;-79
2024/04/23 00:52:52;;;;;;;3.67;3.47;;;;;;;5.81;100.00;100597.53;5489450;26;20345;-79
2024/04/23 00:55:18;;;;;;;3.10;2.90;;;;;;;5.76;100.00;100595.50;5485916;26;20962;-79
2024/04/23 00:57:44;;;;;;;3.73;3.43;;;;;;;5.73;100.00;100587.81;5481079;26;20354;-79
2024/04/23 01:00:09;;;;;;;3.97;3.20;;;;;;;5.69;100.00;100591.97;5471367;26;20419;-79
2024/04/23 01:02:35;;;;;;;3.97;3.08;;;;;;;5.65;100.00;100583.50;5487989;26;20654;-79
2024/04/23 01:05:00;;;;;;;3.60;3.17;;;;;;;5.58;100.00;100587.22;5489272;26;20419;-79
2024/04/23 01:07:25;;;;;;;3.70;3.30;;;;;;;5.53;100.00;100574.41;5488711;26;20330;-79
2024/04/23 01:09:51;;;;;;;4.00;3.60;;;;;;;5.51;100.00;100581.03;5489356;26;20326;-79
2024/04/23 01:12:16;;;;;;;3.88;3.58;;;;;;;5.49;100.00;100575.88;5482857;26;20304;-79
2024/04/23 01:14:44;;;;;;;4.17;3.57;;;;;;;5.48;100.00;100576.91;5489483;26;20715;-79
2024/04/23 01:17:10;;;;;;;4.20;3.80;;;;;;;5.48;100.00;100570.69;5486230;26;20319;-79
2024/04/23 01:19:40;;;;;;;4.53;4.15;;;;;;;5.44;100.00;100578.34;5481266;26;20653;-79
2024/04/23 01:22:21;;;;;;;4.47;4.15;;;;;;;5.51;100.00;100581.03;5488801;26;20312;-79
2024/04/23 01:25:03;;;;;;;5.05;4.65;;;;;;;5.51;100.00;100570.28;5506937;26;20352;-79
2024/04/23 01:27:29;;;;;;;5.47;4.97;;;;;;;5.54;100.00;100570.69;5501211;25;20316;-79
2024/04/23 01:29:56;;;;;;;6.32;4.65;;;;;;;5.55;100.00;100566.97;5486735;25;20355;-79
2024/04/23 01:32:23;;;;;;;6.10;4.65;;;;;;;5.53;100.00;100569.03;5498423;26;20405;-79
2024/04/23 01:34:48;;;;;;;5.43;4.80;;;;;;;5.55;100.00;100569.66;5512643;26;20990;-79
2024/04/23 01:37:14;;;;;;;5.27;4.77;;;;;;;5.55;100.00;100566.97;5479238;25;20324;-79
2024/04/23 01:39:40;;;;;;;5.30;4.80;;;;;;;5.60;100.00;100560.94;5488389;26;20404;-79
2024/04/23 01:42:05;;;;;;;5.43;4.93;;;;;;;5.49;100.00;100567.81;5470708;26;20339;-79
2024/04/23 01:44:32;;;;;;;6.40;5.33;;;;;;;5.46;100.00;100562.03;5510212;26;20714;-79
2024/04/23 01:46:57;;;;;;;5.68;5.22;;;;;;;5.50;100.00;100561.38;5510327;25;20402;-79
2024/04/23 01:49:22;;;;;;;9.53;5.77;;;;;;;5.51;100.00;100559.53;5497644;26;20708;-79
2024/04/23 01:51:48;;;;;;;7.00;5.73;;;;;;;5.52;100.00;100556.66;5505760;26;20350;-79
2024/04/23 01:54:14;;;;;;;8.20;6.07;;;;;;;5.54;100.00;100561.81;5508810;26;20319;-79
2024/04/23 01:56:39;;;;;;;6.97;6.27;;;;;;;5.53;100.00;100554.78;5504716;25;20360;-79
2024/04/23 01:59:04;;;;;;;8.63;6.13;;;;;;;5.51;100.00;100554.16;5495744;26;20326;-79
2024/04/23 02:01:32;;;;;;;7.73;6.40;;;;;;;5.52;100.00;100553.13;5493745;26;20322;-79
2024/04/23 02:03:58;;;;;;;7.28;6.57;;;;;;;5.50;100.00;100552.53;5489421;26;20330;-79
2024/04/23 02:06:23;;;;;;;6.72;6.07;;;;;;;5.48;100.00;100554.56;5511572;25;20648;-79
2024/04/23 02:08:49;;;;;;;7.17;6.03;;;;;;;5.47;100.00;100547.53;5510691;26;20356;-79
2024/04/23 02:11:16;;;;;;;7.23;6.53;;;;;;;5.47;100.00;100548.38;5508298;25;20701;-79
2024/04/23 02:13:41;;;;;;;6.65;6.05;;;;;;;5.45;100.00;100546.94;5505475;26;20306;-79
2024/04/23 02:16:06;;;;;;;7.03;6.32;;;;;;;5.43;100.00;100547.16;5506987;26;20346;-79
2024/04/23 02:18:31;;;;;;;6.80;6.17;;;;;;;5.46;100.00;100548.59;5512093;26;20350;-79
2024/04/23 02:20:57;;;;;;;8.37;6.63;;;;;;;5.42;100.00;100548.19;5508271;25;20404;-79
2024/04/23 02:23:22;;;;;;;7.40;6.70;;;;;;;5.40;100.00;100550.25;5504951;26;20310;-79
2024/04/23 02:25:47;;;;;;;7.70;6.87;;;;;;;5.37;100.00;100557.91;5502624;26;21031;-79
2024/04/23 02:28:13;;;;;;;9.93;6.87;;;;;;;5.37;100.00;100556.03;5484233;26;20304;-79
2024/04/23 02:30:38;;;;;;;7.87;7.07;;;;;;;5.35;100.00;100552.75;5511830;25;21089;-79
2024/04/23 02:33:03;;;;;;;7.20;6.40;;;;;;;5.36;100.00;100548.19;5481940;26;20356;-79
2024/04/23 02:35:29;;;;;;;8.00;6.53;;;;;;;5.36;100.00;100556.25;5478510;26;20354;-80
2024/04/23 02:37:54;;;;;;;6.97;6.33;;;;;;;5.34;100.00;100555.63;5507214;25;20315;-79
2024/04/23 02:40:19;;;;;;;7.73;7.00;;;;;;;5.35;100.00;100554.59;5497258;26;20831;-80
2024/04/23 02:42:45;;;;;;;9.40;7.20;;;;;;;5.34;100.00;100553.75;5510749;25;20308;-79
2024/04/23 02:45:10;;;;;;;7.93;7.03;;;;;;;5.33;100.00;100551.31;5508472;26;20357;-79
2024/04/23 02:47:35;;;;;;;8.80;8.00;;;;;;;5.33;100.00;100551.31;5514925;25;20339;-79
2024/04/23 02:50:00;;;;;;;8.75;7.57;;;;;;;5.28;100.00;100551.91;5503509;26;20331;-79
2024/04/23 02:52:26;;;;;;;7.93;7.13;;;;;;;5.28;100.00;100556.47;5503978;25;20319;-79
2024/04/23 02:54:51;;;;;;;8.30;7.50;;;;;;;5.24;100.00;100553.34;5485666;26;20374;-79
2024/04/23 02:57:16;;;;;;;11.30;7.37;;;;;;;5.20;100.00;100544.09;5512721;26;20645;-79
2024/04/23 02:59:41;;;;;;;9.73;7.50;;;;;;;5.21;100.00;100543.84;5504388;25;20326;-80
2024/04/23 03:02:09;;;;;;;8.67;7.73;;;;;;;5.19;100.00;100542.41;5507800;26;20348;-79
2024/04/23 03:04:35;;;;;;;9.37;7.40;;;;;;;5.18;100.00;100538.91;5497243;26;20667;-79
2024/04/23 03:07:00;;;;;;;9.47;7.47;;;;;;;5.19;100.00;100542.41;5510457;26;20350;-79
2024/04/23 03:09:27;;;;;;;9.77;7.83;;;;;;;5.20;100.00;100536.03;5514793;25;20349;-79
2024/04/23 03:11:53;;;;;;;8.98;7.43;;;;;;;5.19;100.00;100534.38;5509447;26;20308;-79
2024/04/23 03:14:18;;;;;;;8.77;6.80;;;;;;;5.18;100.00;100538.91;5508789;25;20405;-79
2024/04/23 03:16:44;;;;;;;7.97;7.07;;;;;;;5.18;100.00;100536.22;5502451;26;20852;-79
2024/04/23 03:19:09;;;;;;;8.20;7.33;;;;;;;5.15;100.00;100543.88;5514482;25;20324;-79
2024/04/23 03:21:34;;;;;;;9.97;7.37;;;;;;;5.15;100.00;100538.50;5514415;25;20304;-79
2024/04/23 03:23:59;;;;;;;9.43;7.80;;;;;;;5.12;100.00;100537.06;5504591;26;20336;-79
2024/04/23 03:26:25;;;;;;;8.17;7.23;;;;;;;5.12;100.00;100533.53;5508176;26;20797;-79
2024/04/23 03:28:50;;;;;;;8.30;7.45;;;;;;;5.13;100.00;100532.50;5479335;26;20416;-79
2024/04/23 03:31:15;;;;;;;8.63;7.03;;;;;;;5.12;100.00;100530.84;5514467;25;20636;-79
2024/04/23 03:33:41;;;;;;;9.53;7.73;;;;;;;5.12;100.00;100526.31;5513025;25;20319;-79
2024/04/23 03:36:07;;;;;;;8.37;7.30;;;;;;;5.11;100.00;100527.34;5507149;26;20372;-79
2024/04/23 03:38:32;;;;;;;8.30;7.03;;;;;;;5.09;100.00;100528.59;5508451;26;20869;-79
2024/04/23 03:40:57;;;;;;;7.80;7.07;;;;;;;5.06;100.00;100520.94;5514402;25;20312;-79
2024/04/23 03:43:23;;;;;;;9.97;7.27;;;;;;;5.07;100.00;100522.59;5514457;25;20417;-79
2024/04/23 03:45:48;;;;;;;8.37;7.20;;;;;;;5.05;100.00;100516.59;5480925;25;20616;-79
2024/04/23 03:48:13;;;;;;;8.07;7.27;;;;;;;5.06;100.00;100516.41;5503839;26;20821;-79
2024/04/23 03:50:39;;;;;;;8.03;7.23;;;;;;;5.04;100.00;100513.06;5513316;25;20426;-79
2024/04/23 03:53:04;;;;;;;9.40;7.97;;;;;;;5.03;100.00;100515.97;5514414;25;20339;-79
2024/04/23 03:55:29;;;;;;;9.50;7.67;;;;;;;5.01;100.00;100513.50;5507365;26;20316;-79
2024/04/23 03:57:57;;;;;;;9.27;7.50;;;;;;;4.99;100.00;100506.69;5499638;26;20721;-78
2024/04/23 04:00:22;;;;;;;7.90;7.10;;;;;;;5.00;100.00;100511.03;5467566;26;20456;-79
2024/04/23 04:08:16;;;;;;;8.40;7.43;;;;;;;4.96;100.00;100507.09;5478947;26;20405;-79
2024/04/23 04:10:41;;;;;;;10.03;7.60;;;;;;;4.95;100.00;100508.94;5514002;25;20319;-79
2024/04/23 04:13:06;;;;;;;8.52;7.47;;;;;;;4.96;100.00;100515.16;5501600;25;20324;-80
2024/04/23 04:15:32;;;;;;;7.80;7.10;;;;;;;4.96;100.00;100515.16;5507237;26;20314;-79
2024/04/23 04:17:57;;;;;;;8.30;7.50;;;;;;;4.94;100.00;100517.22;5506912;26;20306;-79
2024/04/23 04:20:22;;;;;;;11.27;7.25;;;;;;;4.93;100.00;100510.19;5505990;25;20345;-79
2024/04/23 04:22:48;;;;;;;8.47;7.67;;;;;;;4.92;100.00;100511.22;5503148;25;20351;-79
2024/04/23 04:25:13;;;;;;;9.03;7.73;;;;;;;4.91;100.00;100512.25;5486276;26;20350;-79
2024/04/23 04:27:38;;;;;;;8.27;7.37;;;;;;;4.88;100.00;100513.50;5504389;26;20330;-79
2024/04/23 04:30:04;;;;;;;8.47;7.43;;;;;;;4.89;100.00;100512.47;5506997;25;20352;-79
2024/04/23 04:32:29;;;;;;;9.10;7.47;;;;;;;4.91;100.00;100514.94;5482098;26;20821;-79
2024/04/23 04:34:54;;;;;;;11.93;8.07;;;;;;;4.94;100.00;100515.34;5475263;26;20313;-79
2024/04/23 04:37:20;;;;;;;9.67;7.90;;;;;;;4.94;100.00;100519.91;5464394;26;20306;-79
2024/04/23 04:39:45;;;;;;;8.50;7.60;;;;;;;4.93;100.00;100521.78;5495973;26;20426;-79
2024/04/23 04:42:10;;;;;;;10.40;7.70;;;;;;;4.94;100.00;100522.59;5508546;25;20320;-79
2024/04/23 04:44:36;;;;;;;10.20;7.40;;;;;;;4.93;100.00;100529.00;5500294;26;20312;-79
2024/04/23 04:47:01;;;;;;;8.77;7.90;;;;;;;4.92;100.00;100530.03;5468359;26;20317;-77
2024/04/23 04:49:27;;;;;;;10.67;7.90;;;;;;;4.93;100.00;100531.69;5509089;26;20405;-78
2024/04/23 04:51:52;;;;;;;10.20;8.40;;;;;;;4.93;100.00;100529.84;5484469;25;20483;-78
2024/04/23 04:54:17;;;;;;;10.57;8.73;;;;;;;4.91;100.00;100526.50;5493464;26;20805;-77
2024/04/23 04:56:42;;;;;;;10.00;8.20;;;;;;;4.90;100.00;100532.94;5503642;26;20419;-78
2024/04/23 04:59:07;;;;;;;11.20;8.70;;;;;;;4.88;100.00;100534.97;5497430;26;20322;-78
2024/04/23 05:01:34;;;;;;;10.80;8.47;;;;;;;4.92;100.00;100538.06;5473371;25;20746;-79
2024/04/23 05:04:00;;;;;;;10.30;8.87;;;;;;;4.94;100.00;100544.88;5501023;25;20846;-77
2024/04/23 05:06:26;;;;;;;10.50;8.88;;;;;;;4.94;100.00;100539.50;5480574;26;20851;-78
2024/04/23 05:08:51;;;;;;;10.07;8.83;;;;;;;4.97;100.00;100543.69;5484868;26;20311;-78
2024/04/23 05:11:16;;;;;;;10.90;9.57;;;;;;;4.96;100.00;100539.31;5489630;25;20717;-77
2024/04/23 05:13:42;;;;;;;10.53;9.43;;;;;;;4.98;100.00;100540.75;5513200;25;20363;-78
2024/04/23 05:16:07;;;;;;;12.23;10.97;;;;;;;5.00;100.00;100548.63;5470279;25;20322;-77
2024/04/23 05:18:32;;;;;;;11.43;10.23;;;;;;;4.99;100.00;100537.06;5442561;26;20311;-77
2024/04/23 05:20:57;;;;;;;11.17;9.83;;;;;;;5.03;100.00;100542.84;5482332;26;20332;-78
2024/04/23 05:23:23;;;;;;;11.87;10.40;;;;;;;5.04;100.00;100545.31;5464757;26;20812;-76
2024/04/23 05:25:48;;;;;;;12.82;10.63;;;;;;;5.05;100.00;100541.59;5482509;26;20682;-77
2024/04/23 05:28:13;;;;;;;13.77;10.83;;;;;;;5.08;100.00;100551.09;5464060;26;20329;-78
2024/04/23 05:33:22;;;;;;;12.60;11.10;;;;;;;5.10;100.00;100541.00;5491755;26;20411;-79
2024/04/23 05:35:47;;;;;;;11.63;10.43;;;;;;;5.10;100.00;100544.47;5466124;26;20309;-80
2024/04/23 05:38:13;;;;;;;11.40;9.82;;;;;;;5.12;100.00;100544.28;5478521;26;20674;-78
2024/04/23 05:40:38;;;;;;;11.80;10.40;;;;;;;5.10;100.00;100549.84;5481777;26;20363;-80
2024/04/23 05:43:03;;;;;;;14.13;11.03;;;;;;;5.16;100.00;100548.22;5493884;25;20397;-79
2024/04/23 05:45:29;;;;;;;14.00;10.97;;;;;;;5.17;100.00;100544.50;5480527;26;20378;-77
2024/04/23 05:48:31;;;;;;;11.90;10.27;;;;;;;5.17;100.00;100556.03;5462832;26;20329;-79
2024/04/23 05:51:34;;;;;;;15.52;10.38;;;;;;;5.20;100.00;100554.84;5467628;26;20381;-79
2024/04/23 05:54:37;;;;;;;14.40;10.52;;;;;;;5.24;100.00;100558.72;5472230;26;20347;-79
2024/04/23 05:57:02;;;;;;;12.55;10.05;;;;;;;5.26;100.00;100567.44;5480080;26;20648;-79
2024/04/23 05:59:28;;;;;;;11.90;9.80;;;;;;;5.27;100.00;100562.88;5475856;26;20353;-80
2024/04/23 06:01:55;;;;;;;11.73;9.90;;;;;;;5.25;100.00;100568.47;5473058;26;20354;-80
2024/04/23 06:04:20;;;;;;;11.07;9.25;;;;;;;5.28;100.00;100572.56;5494684;25;20385;-81
2024/04/23 06:06:45;;;;;;;11.18;9.30;;;;;;;5.32;100.00;100568.44;5493009;25;20311;-81
2024/04/23 06:09:11;;;;;;;13.07;9.17;;;;;;;5.32;100.00;100569.28;5507980;25;20639;-80
2024/04/23 06:11:36;;;;;;;10.57;9.32;;;;;;;5.35;100.00;100568.88;5504713;26;20844;-80
2024/04/23 06:14:05;;;;;;;10.47;9.20;;;;;;;5.41;100.00;100572.56;5505436;26;20440;-80
2024/04/23 06:16:31;;;;;;;10.02;8.60;;;;;;;5.39;100.00;100569.28;5511730;25;20398;-80
2024/04/23 06:18:56;;;;;;;10.68;8.35;;;;;;;5.38;100.00;100575.69;5504891;25;20334;-80
2024/04/23 06:21:21;;;;;;;11.33;8.90;;;;;;;5.36;100.00;100578.59;5505079;26;20315;-80
2024/04/23 06:23:46;;;;;;;9.25;8.25;;;;;;;5.38;100.00;100586.41;5502317;26;20808;-79
2024/04/23 06:26:12;;;;;;;10.40;8.70;;;;;;;5.42;100.00;100585.81;5465380;26;20323;-80
2024/04/23 06:28:37;;;;;;;8.73;7.90;;;;;;;5.41;100.00;100578.78;5463787;26;20340;-80
2024/04/23 06:31:02;;;;;;;11.20;8.30;;;;;;;5.47;100.00;100575.25;5458512;26;20311;-79
2024/04/23 06:33:28;;;;;;;8.90;7.40;;;;;;;5.53;100.00;100574.41;5467010;26;20487;-80
2024/04/23 06:35:53;;;;;;;10.03;7.13;;;;;;;5.56;100.00;100573.19;5504658;25;20340;-80
2024/04/23 06:38:18;;;;;;;7.93;7.13;;;;;;;5.56;100.00;100579.41;5481231;26;20374;-80
2024/04/23 06:40:43;;;;;;;7.93;7.03;;;;;;;5.59;100.00;100573.59;5465699;26;20852;-80
2024/04/23 06:43:09;;;;;;;12.77;7.77;;;;;;;5.63;100.00;100579.38;5462154;26;20408;-80
2024/04/23 06:45:34;;;;;;;8.03;7.23;;;;;;;5.62;100.00;100577.72;5505161;25;20334;-80
2024/04/23 06:48:05;;;;;;;9.97;6.73;;;;;;;5.64;100.00;100575.63;5474572;26;20873;-79
2024/04/23 06:50:31;;;;;;;8.55;6.85;;;;;;;5.67;100.00;100573.34;5492746;26;20351;-80
2024/04/23 06:52:56;;;;;;;9.33;7.07;;;;;;;5.71;100.00;100579.16;5482855;26;20349;-80
2024/04/23 06:55:21;;;;;;;7.83;6.50;;;;;;;5.72;100.00;100572.75;5510667;26;20479;-80
2024/04/23 06:57:52;;;;;;;7.53;6.53;;;;;;;5.74;100.00;100576.03;5509831;26;20786;-80
2024/04/23 07:00:17;;;;;;;9.40;7.20;;;;;;;5.75;100.00;100564.25;5508177;25;20323;-79
2024/04/23 07:02:42;;;;;;;9.27;7.30;;;;;;;5.81;100.00;100576.84;5496697;26;20317;-80
2024/04/23 07:05:07;;;;;;;8.30;6.20;;;;;;;5.84;100.00;100573.72;5508469;26;20319;-79
2024/04/23 07:07:33;;;;;;;7.67;6.63;;;;;;;5.83;100.00;100571.28;5491475;25;20317;-80
2024/04/23 07:09:58;;;;;;;6.47;5.97;;;;;;;5.84;100.00;100572.91;5488155;26;20371;-80
2024/04/23 07:12:23;;;;;;;7.40;6.05;;;;;;;5.86;100.00;100573.56;5504402;26;20307;-80
2024/04/23 07:14:49;;;;;;;7.73;6.10;;;;;;;5.90;100.00;100564.00;5502343;26;20325;-79
2024/04/23 07:17:14;;;;;;;8.00;6.00;;;;;;;5.80;100.00;100563.59;5467152;26;20348;-80
2024/04/23 07:19:39;;;;;;;7.30;5.80;;;;;;;5.85;100.00;100571.88;5509338;26;20334;-80
2024/04/23 07:22:04;;;;;;;6.77;5.93;;;;;;;5.81;100.00;100559.88;5475621;25;20772;-80
2024/04/23 07:24:30;;;;;;;6.03;5.53;;;;;;;5.86;100.00;100557.44;5475342;26;20408;-80
2024/04/23 07:26:55;;;;;;;8.10;5.50;;;;;;;5.92;100.00;100552.03;5462714;26;20312;-80
2024/04/23 07:29:20;;;;;;;7.37;6.10;;;;;;;5.93;100.00;100561.72;5483353;26;20323;-81
2024/04/23 07:31:45;;;;;;;6.50;5.90;;;;;;;5.98;100.00;100555.72;5493140;26;20315;-80
2024/04/23 07:34:11;;;;;;;6.93;5.77;;;;;;;6.00;100.00;100561.69;5489721;26;20342;-80
2024/04/23 07:36:36;;;;;;;6.50;5.90;;;;;;;6.05;100.00;100554.66;5485820;26;20317;-79
2024/04/23 07:39:01;;;;;;;6.75;6.03;;;;;;;6.09;100.00;100555.88;5468231;26;20329;-80
2024/04/23 07:41:26;;;;;;;8.47;5.87;;;;;;;6.09;100.00;100555.88;5484616;26;20681;-80
2024/04/23 07:43:52;;;;;;;9.33;5.63;;;;;;;6.11;100.00;100542.22;5476597;26;20314;-79
2024/04/23 07:46:17;;;;;;;6.10;5.60;;;;;;;6.17;100.00;100538.66;5502117;26;20317;-81
2024/04/23 07:48:42;;;;;;;8.43;5.57;;;;;;;6.21;100.00;100538.03;5478086;26;20929;-80
2024/04/23 07:51:08;;;;;;;6.80;6.20;;;;;;;6.23;100.00;100543.19;5485599;26;20413;-81
2024/04/23 07:53:33;;;;;;;6.37;5.73;;;;;;;6.27;100.00;100533.66;5491313;26;20380;-80
2024/04/23 07:55:58;;;;;;;8.40;6.33;;;;;;;6.33;100.00;100543.56;5475234;26;20330;-80
2024/04/23 07:58:26;;;;;;;7.10;5.73;;;;;;;6.32;100.00;100550.00;5486463;25;20319;-80
2024/04/23 08:00:51;;;;;;;6.53;5.80;;;;;;;6.34;100.00;100539.00;5504506;25;20308;-80
2024/04/23 08:03:16;;;;;;;6.00;5.40;;;;;;;6.36;100.00;100537.72;5485920;26;20302;-81
2024/04/23 08:05:42;;;;;;;8.47;6.63;;;;;;;6.43;100.00;100537.69;5476323;26;20318;-80
2024/04/23 08:08:07;;;;;;;6.73;5.90;;;;;;;6.47;100.00;100539.75;5496467;26;20328;-80
2024/04/23 08:10:32;;;;;;;6.63;5.80;;;;;;;6.50;100.00;100539.31;5505781;25;20351;-80
2024/04/23 08:12:57;;;;;;;6.97;6.10;;;;;;;6.55;100.00;100536.00;5506080;26;20822;-80
2024/04/23 08:15:23;;;;;;;9.27;6.47;;;;;;;6.59;100.00;100543.41;5507250;26;20318;-81
2024/04/23 08:17:49;;;;;;;11.37;6.37;;;;;;;6.65;100.00;100531.75;5500197;26;20389;-80
2024/04/23 08:20:14;;;;;;;6.53;5.87;;;;;;;6.72;100.00;100537.94;5471039;26;20460;-79
2024/04/23 08:22:40;;;;;;;7.65;5.80;;;;;;;6.83;100.00;100535.56;5489495;26;20351;-80
2024/04/23 08:25:07;;;;;;;6.60;5.83;;;;;;;6.89;100.00;100534.69;5495687;26;20318;-80
2024/04/23 08:27:32;;;;;;;8.13;6.07;;;;;;;6.95;100.00;100534.66;5493349;26;20387;-79
2024/04/23 08:29:58;;;;;;;6.35;5.75;;;;;;;6.96;100.00;100530.91;5496251;26;20319;-80
2024/04/23 08:32:23;;;;;;;6.80;6.10;;;;;;;7.07;100.00;100535.59;5500965;25;20307;-80
2024/04/23 08:34:48;;;;;;;6.00;5.40;;;;;;;7.17;100.00;100532.41;5477258;25;20326;-80
2024/04/23 08:37:15;;;;;;;5.83;5.23;;;;;;;7.27;100.00;100527.34;5499643;26;20412;-80
2024/04/23 08:39:40;;;;;;;5.82;5.32;;;;;;;7.40;100.00;100535.31;5496156;25;20316;-80
2024/04/23 08:42:11;;;;;;;9.13;5.80;;;;;;;7.54;100.00;100523.31;5513705;25;20320;-80
2024/04/23 08:44:40;;;;;;;8.70;5.87;;;;;;;7.67;100.00;100523.19;5490540;25;20565;-80
2024/04/23 08:47:07;;;;;;;9.17;5.87;;;;;;;7.81;100.00;100522.00;5506609;26;20346;-79
2024/04/23 08:49:33;;;;;;;6.45;5.28;;;;;;;7.95;100.00;100519.13;5495843;25;20317;-80
2024/04/23 08:51:58;;;;;;;7.30;5.18;;;;;;;8.15;100.00;100523.25;5476042;26;20375;-80
2024/04/23 08:54:24;;;;;;;6.97;5.33;;;;;;;8.36;100.00;100526.53;5503781;26;20364;-80
2024/04/23 08:56:50;;;;;;;6.97;5.07;;;;;;;8.47;100.00;100520.34;5471857;26;20323;-79
2024/04/23 08:59:18;;;;;;;6.83;4.60;;;;;;;8.59;100.00;100521.22;5512865;26;20867;-80
2024/04/23 09:01:48;;;;;;;4.85;4.45;;;;;;;8.73;100.00;100520.78;5513587;25;20413;-80
2024/04/23 09:04:14;;;;;;;6.40;5.35;;;;;;;9.03;100.00;100509.06;5509581;25;20312;-79
2024/04/23 09:06:40;;;;;;;6.83;5.23;;;;;;;9.27;100.00;100506.16;5506621;26;20330;-79
2024/04/23 09:09:05;;;;;;;5.23;4.73;;;;;;;9.49;100.00;100505.56;5480832;26;20322;-80
2024/04/23 09:11:31;;;;;;;6.87;4.43;;;;;;;9.52;100.00;100499.66;5489501;26;20352;-80
2024/04/23 09:14:00;;;;;;;5.43;4.32;;;;;;;9.52;100.00;100499.66;5511149;25;20702;-78
2024/04/23 09:16:28;;;;;;;7.77;4.47;;;;;;;9.60;100.00;100497.44;5506262;26;20314;-80
2024/04/23 09:18:54;;;;;;;4.90;4.10;;;;;;;9.59;100.00;100503.91;5498743;26;20316;-80
2024/04/23 09:21:20;;;;;;;6.85;4.75;;;;;;;9.88;100.00;100500.19;5494954;25;20341;-79
2024/04/23 09:23:46;;;;;;;6.47;5.03;;;;;;;10.16;100.00;100495.91;5500262;26;20319;-80
2024/04/23 09:26:11;;;;;;;5.13;4.55;;;;;;;10.35;100.00;100491.94;5468719;26;20730;-80
2024/04/23 09:28:40;;;;;;;6.77;4.90;;;;;;;10.55;100.00;100484.19;5510147;26;20380;-80
2024/04/23 09:31:07;;;;;;;5.63;4.70;;;;;;;10.82;100.00;100487.09;5501944;25;20371;-80
2024/04/23 09:33:33;;;;;;;4.80;3.93;;;;;;;11.13;100.00;100486.50;5479228;25;20326;-79
2024/04/23 09:36:05;;;;;;;3.93;3.63;;;;;;;11.44;96.43;100485.09;5459397;26;20314;-79
2024/04/23 09:38:35;;;;;;;5.55;3.97;;;;;;;11.56;94.28;100485.00;5508674;26;20336;-79
2024/04/23 09:41:04;;;;;;;5.15;3.95;;;;;;;11.61;93.10;100477.72;5507053;25;20818;-78
2024/04/23 09:43:29;;;;;;;4.45;4.10;;;;;;;11.50;88.76;100477.81;5475764;25;20317;-78
2024/04/23 09:45:55;;;;;;;5.78;3.90;;;;;;;11.71;88.23;100472.47;5479982;26;20710;-79
2024/04/23 09:48:30;;;;;;;5.20;3.33;;;;;;;11.89;87.86;100465.88;5504933;26;20385;-79
2024/04/23 09:51:03;;;;;;;4.15;3.85;;;;;;;12.37;87.43;100462.38;5508997;25;20420;-80
2024/04/23 09:53:30;;;;;;;7.82;3.78;;;;;;;12.63;81.96;100464.25;5504631;25;20312;-79
2024/04/23 09:56:01;;;;;;;4.20;3.85;;;;;;;12.64;85.29;100467.78;5505956;26;20678;-79
2024/04/23 09:58:26;;;;;;;4.38;3.10;;;;;;;13.30;77.20;100452.84;5481493;25;20352;-80
2024/04/23 10:00:55;;;;;;;8.20;3.20;;;;;;;13.34;73.54;100451.19;5491232;25;20316;-79
2024/04/23 10:03:26;;;;;;;3.07;2.80;;;;;;;13.37;65.96;100448.78;5485513;26;20443;-80
2024/04/23 10:05:54;;;;;;;5.70;2.67;;;;;;;13.31;65.12;100446.28;5507643;26;20306;-79
2024/04/23 10:08:39;;;;;;;3.33;2.53;;;;;;;13.55;64.06;100446.69;5510855;26;20308;-79
2024/04/23 10:11:06;;;;;;;2.95;2.65;;;;;;;13.91;63.26;100435.69;5507851;26;20353;-79
2024/04/23 10:13:40;;;;;;;3.55;3.22;;;;;;;14.70;65.14;100431.78;5505365;26;20326;-80
2024/04/23 10:16:15;;;;;;;4.10;3.70;;;;;;;15.58;63.36;100435.75;5469020;26;20318;-79
2024/04/23 10:18:50;;;;;;;3.40;2.50;;;;;;;16.24;58.38;100433.53;5491230;26;20340;-79
2024/04/23 10:21:24;;;;;;;2.42;2.20;;;;;;;16.46;54.56;100430.41;5495761;26;20388;-79
2024/04/23 10:23:52;;;;;;;2.58;2.20;;;;;;;16.82;48.80;100428.25;5511564;26;20710;-79
2024/04/23 10:26:18;;;;;;;2.67;2.47;;;;;;;17.09;47.93;100429.34;5511895;25;20429;-79
2024/04/23 10:28:44;;;;;;;2.70;2.35;;;;;;;17.76;46.18;100416.59;5507444;26;20588;-79
2024/04/23 10:31:10;;;;;;;2.93;2.77;;;;;;;18.35;42.26;100416.03;5487160;26;20807;-80
2024/04/23 10:33:37;;;;;;;3.22;2.90;;;;;;;18.85;42.48;100432.84;5487631;26;20348;-79
2024/04/23 10:36:05;;;;;;;2.90;2.70;;;;;;;18.71;41.95;100421.00;5485288;25;20355;-81
2024/04/23 10:38:31;;;;;;;2.42;2.33;;;;;;;19.84;40.86;100416.72;5500163;26;20308;-80
2024/04/23 10:40:56;;;;;;;2.35;2.10;;;;;;;20.99;38.65;100420.66;5505036;26;20311;-79
2024/04/23 10:43:22;;;;;;;6.05;2.83;;;;;;;21.62;35.45;100417.59;5509791;26;20631;-80
2024/04/23 10:45:48;;;;;;;2.30;2.10;;;;;;;22.34;33.04;100406.06;5509808;26;20344;-79
2024/04/23 10:48:24;;;;;;;2.37;1.90;;;;;;;22.64;30.13;100407.84;5507883;25;20350;-80
2024/04/23 10:50:52;;;;;;;3.40;2.25;;;;;;;22.80;32.25;100406.25;5482607;26;20330;-80
2024/04/23 10:53:19;;;;;;;2.95;2.70;;;;;;;23.39;31.68;100403.63;5481237;26;20335;-79
2024/04/23 10:55:50;;;;;;;3.50;3.20;;;;;;;23.86;31.13;100412.72;5511426;25;20327;-79
2024/04/23 10:58:15;;;;;;;3.10;2.70;;;;;;;24.16;30.26;100404.09;5496544;25;20304;-80
2024/04/23 11:00:41;;;;;;;2.87;2.57;;;;;;;24.33;30.40;100405.94;5507281;26;20411;-80
2024/04/23 11:03:26;;;;;;;3.45;2.50;;;;;;;24.08;28.06;100398.56;5511901;26;20425;-80
2024/04/23 11:05:51;;;;;;;5.73;2.90;;;;;;;21.16;31.09;100388.53;5506056;25;20335;-80
2024/04/23 11:08:27;;;;;;;2.70;2.50;;;;;;;20.39;33.56;100393.50;5495333;25;20913;-79
2024/04/23 11:11:03;;;;;;;2.38;2.25;;;;;;;20.66;34.72;100390.63;5489342;26;20345;-80
2024/04/23 11:13:30;;;;;;;2.70;2.50;;;;;;;21.50;33.04;100371.34;5500417;25;20304;-80
2024/04/23 11:15:58;;;;;;;5.00;2.50;;;;;;;21.79;32.04;100370.75;5466350;26;20433;-80
2024/04/23 11:18:25;;;;;;;3.05;2.85;;;;;;;21.30;32.26;100371.09;5482886;26;20318;-80
2024/04/23 11:20:59;;;;;;;3.35;3.00;;;;;;;20.46;32.68;100384.78;5514138;26;20300;-79
2024/04/23 11:23:27;;;;;;;4.17;2.47;;;;;;;19.66;33.52;100372.53;5508564;25;20304;-77
2024/04/23 11:25:54;;;;;;;3.20;2.90;;;;;;;21.43;32.35;100368.22;5474524;25;20320;-84
2024/04/23 11:28:19;;;;;;;2.80;2.60;;;;;;;23.11;30.41;100364.56;5498302;26;20322;-79
2024/04/23 11:30:51;;;;;;;2.90;2.63;;;;;;;23.93;29.28;100360.41;5489199;25;20364;-85